createdAt,value
2023-05-05T00:04:44.317Z,5.3
2023-05-05T00:14:53.020Z,7.26
2023-05-05T00:25:01.969Z,6.36
2023-05-05T00:35:10.960Z,6.35
2023-05-05T00:45:12.278Z,4.7
2023-05-05T00:55:21.284Z,7.33
2023-05-05T01:05:30.733Z,5.83
2023-05-05T01:15:39.450Z,5.31
2023-05-05T01:25:48.282Z,7.19
2023-05-05T01:35:57.087Z,8.64
2023-05-05T01:46:05.782Z,8.13
2023-05-05T01:56:15.677Z,9.58
2023-05-05T02:06:30.958Z,9.86
2023-05-05T02:16:29.820Z,7.56
2023-05-05T02:26:38.596Z,9.04
2023-05-05T02:36:47.618Z,10.86
2023-05-05T02:46:56.473Z,13.38
2023-05-05T02:57:05.100Z,10.5
2023-05-05T03:07:14.109Z,12.48
2023-05-05T03:17:22.994Z,13.96
2023-05-05T03:27:32.886Z,19.75
2023-05-05T03:37:41.517Z,15.95
2023-05-05T03:47:50.125Z,16.46
2023-05-05T03:57:58.653Z,16.67
2023-05-05T04:08:07.342Z,18.21
2023-05-05T04:18:15.889Z,15.83
2023-05-05T04:28:24.126Z,17.27
2023-05-05T04:38:32.855Z,18.22
2023-05-05T04:48:41.493Z,17.5
2023-05-05T04:58:50.262Z,15.53
2023-05-05T05:09:04.269Z,15.05
2023-05-05T05:19:03.702Z,16.82
2023-05-05T05:29:12.539Z,17.92
2023-05-05T05:39:21.455Z,19.39
2023-05-05T05:49:30.226Z,14.66
2023-05-05T05:59:46.557Z,18.36
2023-05-05T06:09:58.184Z,18.27
2023-05-05T06:19:49.575Z,22.31
2023-05-05T06:29:51.153Z,17.84
2023-05-05T06:39:49.938Z,18.67
2023-05-05T06:49:58.867Z,19.18
2023-05-05T06:59:59.532Z,24.47
2023-05-05T07:10:08.494Z,20.73
2023-05-05T07:20:16.783Z,18.3
2023-05-05T07:30:25.264Z,13.12
2023-05-05T07:40:33.981Z,13.79
2023-05-05T07:50:42.720Z,11.79
2023-05-05T08:00:52.552Z,8.84
2023-05-05T08:11:01.685Z,7.85
2023-05-05T08:21:04.038Z,10.35
2023-05-05T08:51:19.541Z,6.07
2023-05-05T09:01:18.150Z,7.45
2023-05-05T09:11:26.883Z,6.8
2023-05-05T09:31:38.086Z,6.28
2023-05-05T09:41:47.282Z,5.24
2023-05-05T09:51:55.967Z,3.52
2023-05-05T10:02:04.722Z,3.8
2023-05-05T10:12:13.543Z,6.87
2023-05-05T10:22:22.180Z,5.72
2023-05-05T10:32:50.068Z,6.7
2023-05-05T10:42:38.999Z,3.83
2023-05-05T10:52:48.858Z,5.53
2023-05-05T11:02:57.895Z,5.39
2023-05-05T11:13:06.763Z,5.63
2023-05-05T11:23:16.679Z,5.88
2023-05-05T11:33:23.780Z,5.2
2023-05-05T11:43:32.669Z,9.44
2023-05-05T11:53:41.479Z,5.85
2023-05-05T12:03:50.478Z,5.61
2023-05-05T12:13:59.265Z,5.9
2023-05-05T12:24:08.047Z,6.59
2023-05-05T12:34:16.726Z,5.13
2023-05-05T12:44:27.914Z,4.18
2023-05-05T12:54:29.124Z,5.98
2023-05-05T13:04:30.019Z,4.5
2023-05-05T13:14:38.746Z,6.31
2023-05-05T13:24:52.095Z,5.57
2023-05-05T13:34:54.325Z,7.37
2023-05-05T13:45:03.062Z,6.92
2023-05-05T13:55:11.799Z,6.66
2023-05-05T14:05:20.483Z,6.12
2023-05-05T14:15:29.247Z,6.52
2023-05-05T14:25:40.174Z,6.39
2023-05-05T14:35:39.973Z,9.47
2023-05-05T14:45:49.158Z,7.22
2023-05-05T14:55:58.031Z,6.25
2023-05-05T15:06:06.847Z,6.21
2023-05-05T15:16:15.681Z,5.66
2023-05-05T15:26:24.488Z,5.59
2023-05-05T15:36:33.338Z,7.46
2023-05-05T15:46:44.428Z,4.41
2023-05-05T15:56:43.104Z,6.08
2023-05-05T16:06:51.955Z,6.1
2023-05-05T16:17:03.310Z,8.36
2023-05-05T16:27:01.685Z,5.4
2023-05-05T16:37:10.528Z,5.25
2023-05-05T16:47:19.336Z,5.57
2023-05-05T16:57:28.145Z,7.96
2023-05-05T17:07:36.841Z,5.69
2023-05-05T17:17:45.066Z,7.39
2023-05-05T17:27:54.885Z,6.45
2023-05-05T17:38:04.723Z,7.13
2023-05-05T17:48:13.575Z,6.09
2023-05-05T17:58:23.857Z,6.13
2023-05-05T18:08:29.912Z,8.01
2023-05-05T18:18:32.078Z,8.17
2023-05-05T18:28:43.486Z,6.98
2023-05-05T18:38:45.196Z,6
2023-05-05T18:48:43.572Z,6.17
2023-05-05T18:58:53.065Z,7.47
2023-05-05T19:09:01.890Z,7.49
2023-05-05T19:19:10.573Z,7.07
2023-05-05T19:29:19.472Z,7.2
2023-05-05T19:39:29.993Z,8.32
2023-05-05T19:49:30.527Z,8.94
2023-05-05T19:59:29.842Z,7.08
2023-05-05T20:09:38.576Z,6.95
2023-05-05T20:19:48.932Z,9.09
2023-05-05T20:29:47.716Z,6.78
2023-05-05T20:39:56.415Z,7.17
2023-05-05T20:50:11.951Z,6.08
2023-05-05T21:00:13.279Z,5.97
2023-05-05T21:10:12.105Z,7.23
2023-05-05T21:20:20.660Z,7.85
2023-05-05T21:30:29.385Z,4.97
2023-05-05T21:40:38.090Z,5.17
2023-05-05T21:50:46.803Z,5.88
2023-05-05T22:00:55.502Z,5.7
2023-05-05T22:11:04.191Z,6.07
2023-05-05T22:21:12.854Z,6.05
2023-05-05T22:31:21.603Z,4.88
2023-05-05T22:41:30.348Z,6.86
2023-05-05T22:51:39.017Z,8.73
2023-05-05T23:01:47.597Z,6.38
2023-05-05T23:11:56.266Z,5.92
2023-05-05T23:22:04.839Z,7.01
2023-05-05T23:32:13.531Z,7.15
2023-05-05T23:42:22.155Z,8.01
2023-05-05T23:52:30.785Z,10.43
